Toledo, WA

1:38 PM PDT on March 30, 2015 (GMT -0700)
Olympia | | Change Station
CLOSE
Current Station
Airport
Location: Olympia,
Elevation: 200 ft
Nearby Weather Stations

Elev 200 ft 46.97 °N, 122.90 °W | Updated 44 minutes ago

Clear
Clear
62 °F
Feels Like 62 °F
N
13
Wind Variable Wind from West

Today
High -- | Low -- °F
--% Chance of Precip.
Yesterday
High -- | Low -- °F
Precip. -- in
6:54 AM 7:37 PM
Waxing Gibbous, 82% visible
Pressure 30.04 in
Visibility 10.0 miles
Clouds Few 3100 ft
Dew Point 47 °F
Humidity 58%
Rainfall 0.00 in
Snow Depth Not available.
UV 6 out of 12
Pollen 11.60 out of 12
Air Quality Not available.
Flu Activity Not available.
METAR KOLM 301954Z 26011KT 10SM FEW031 17/08 A3003 RMK AO2 SLP171 T01670083

More Conditions Fewer Conditions

Pressure 30.04 in
Visibility 10.0 miles
Clouds Few 3100 ft
Dew Point 47 °F
Humidity 58%
Rainfall 0.00 in
Snow Depth Not available.
UV 6 out of 12
Pollen 11.60 out of 12
Air Quality Not available.
Flu Activity Not available.
METAR KOLM 301954Z 26011KT 10SM FEW031 17/08 A3003 RMK AO2 SLP171 T01670083

More Conditions Fewer Conditions

10-Day Weather Forecast

Almanac

Astronomy

Mar. 30, 2015 Rise Set
Actual Time
Civil Twilight
Nautical Twilight
Astronomical Twilight
Moon
Length of Visible Light
Length of Day
Tomorrow will be .
, % of the Moon is Illuminated

Today's Extremes

State Highs State Lows

Community

WunderPhotos

Upload Photos

1,809,582 photos uploaded!

WunderBlogs® & News

Nearby

Air Quality

  Air Quality AQ Index Pollutant
Not available.

Snow Depth

Station Depth Elevation

Earthquake Activity

City Distance Mag. Time & Date
Minimum magnitude displayed is 2.5.

Coastal Water Temperatures

Place Temperature

Stations

Nearby Weather Stations

Station Location Temp. Windchill Dew Point Humidity Wind Precip. Elev Updated Type